Terminal Aerodrome Forecast
Issued by NWS

Home | Current Version | Previous Version | Text Only | Print | Product List | Glossary On
Versions: 1 2 3 4 5 6 7 8 9 10 11 12 13 14 15 16 17 18 19
000
FTUS46 KSEW 251100
TAFPAE
TAF
KPAE 251123Z 2512/2612 VRB03KT P6SM SCT001 BKN090
      TEMPO 2512/2515 3SM BR BKN001 OVC090
     FM251500 17008KT P6SM -RA OVC045
     FM252200 18008KT P6SM -RA OVC020
     FM260300 20010KT P6SM -RA BKN020 OVC035=

USA.gov is the U.S. government's official web portal to all federal, state and local government web resources and services.